Terminal Aerodrome Forecast
Issued by NWS

Home | Current Version | Previous Version | Graphics & Text | Print | Product List | Glossary On
Versions: 1 2 3 4 5 6 7 8 9 10 11 12 13 14 15 16 17 18
349
FTUS43 KOAX 281748
TAFCDR
TAF
KCDR 281748Z 2818/2918 09008KT P6SM SCT090
     FM282200 08008KT P6SM VCTS BKN050CB BKN100
     FM290300 VRB05KT P6SM SCT100=

USA.gov is the U.S. government's official web portal to all federal, state and local government web resources and services.